Langho, United Kingdom
Current Conditions -  °F | °C
As of 6:50 PM on Thursday 29 Jan 2015 (Local Time) from EGNO Reporting Station
Rain Showers Rain Showers  
Wind Chill: 27°   Ceiling: 1500
Heat Index: 37°   Visibility: 6mi
Dew Point: 34°   Wind: 21mph
Humidity: 87%   Direction: 300°WNW
Pressure: 28.79"   Gusts: 32mph
Location:  53.8°N, 2.45°W
Report Text: EGNO 291850Z 30018G28KT 9999 VCSH FEW012 BKN015 03/01 Q0975
Loading
Personal Weather Stations






























Interactive Weather Map New forecast layout! Learn more

10-Day Weather Forecast

Advertisements
Track Severe Weather on mobile